sensor_id;sensor_type;location;lat;lon;timestamp;pressure;altitude;pressure_sealevel;temperature;humidity
69171;BME280;56279;47.902;12.308;2022-10-16T00:00:23;95473.94;;;14.13;95.83
69171;BME280;56279;47.902;12.308;2022-10-16T00:02:24;95468.13;;;14.11;95.80
69171;BME280;56279;47.902;12.308;2022-10-16T00:04:25;95464.19;;;14.08;95.96
69171;BME280;56279;47.902;12.308;2022-10-16T00:06:27;95466.38;;;14.06;95.81
69171;BME280;56279;47.902;12.308;2022-10-16T00:08:30;95464.59;;;14.02;95.99
69171;BME280;56279;47.902;12.308;2022-10-16T00:10:31;95471.59;;;13.98;95.94
69171;BME280;56279;47.902;12.308;2022-10-16T00:12:32;95476.97;;;13.93;95.86
69171;BME280;56279;47.902;12.308;2022-10-16T00:14:34;95472.53;;;13.88;96.11
69171;BME280;56279;47.902;12.308;2022-10-16T00:16:35;95465.75;;;13.82;96.15
69171;BME280;56279;47.902;12.308;2022-10-16T00:18:37;95470.06;;;13.78;96.14
69171;BME280;56279;47.902;12.308;2022-10-16T00:20:39;95484.69;;;13.75;96.19
69171;BME280;56279;47.902;12.308;2022-10-16T00:22:59;95487.16;;;13.72;96.45
69171;BME280;56279;47.902;12.308;2022-10-16T00:25:01;95486.94;;;13.68;96.34
69171;BME280;56279;47.902;12.308;2022-10-16T00:27:03;95497.06;;;13.66;96.62
69171;BME280;56279;47.902;12.308;2022-10-16T00:29:05;95490.47;;;13.64;96.68
69171;BME280;56279;47.902;12.308;2022-10-16T00:31:10;95489.50;;;13.60;96.52
69171;BME280;56279;47.902;12.308;2022-10-16T00:33:12;95489.28;;;13.56;96.68
69171;BME280;56279;47.902;12.308;2022-10-16T00:35:13;95493.28;;;13.54;96.66
69171;BME280;56279;47.902;12.308;2022-10-16T00:37:14;95499.19;;;13.51;97.10
69171;BME280;56279;47.902;12.308;2022-10-16T00:39:15;95487.31;;;13.48;96.83
69171;BME280;56279;47.902;12.308;2022-10-16T00:41:17;95493.66;;;13.47;96.90
69171;BME280;56279;47.902;12.308;2022-10-16T00:43:48;95493.47;;;13.44;96.82
69171;BME280;56279;47.902;12.308;2022-10-16T00:45:50;95494.84;;;13.41;96.91
69171;BME280;56279;47.902;12.308;2022-10-16T00:47:53;95499.91;;;13.38;97.10
69171;BME280;56279;47.902;12.308;2022-10-16T00:50:00;95505.81;;;13.35;97.21
69171;BME280;56279;47.902;12.308;2022-10-16T00:52:03;95509.84;;;13.32;97.20
69171;BME280;56279;47.902;12.308;2022-10-16T00:54:09;95507.75;;;13.29;97.23
69171;BME280;56279;47.902;12.308;2022-10-16T00:56:11;95509.13;;;13.27;97.26
69171;BME280;56279;47.902;12.308;2022-10-16T00:58:12;95505.16;;;13.24;97.22
69171;BME280;56279;47.902;12.308;2022-10-16T01:00:21;95506.34;;;13.18;97.08
69171;BME280;56279;47.902;12.308;2022-10-16T01:02:23;95508.75;;;13.14;97.42
69171;BME280;56279;47.902;12.308;2022-10-16T01:04:25;95503.53;;;13.09;97.28
69171;BME280;56279;47.902;12.308;2022-10-16T01:09:17;95507.31;;;13.03;97.19
69171;BME280;56279;47.902;12.308;2022-10-16T01:11:36;95505.22;;;13.00;97.24
69171;BME280;56279;47.902;12.308;2022-10-16T01:13:42;95507.09;;;13.00;97.69
69171;BME280;56279;47.902;12.308;2022-10-16T01:15:52;95506.09;;;12.96;97.54
69171;BME280;56279;47.902;12.308;2022-10-16T01:18:07;95504.53;;;12.95;97.70
69171;BME280;56279;47.902;12.308;2022-10-16T01:20:14;95504.53;;;12.95;97.88
69171;BME280;56279;47.902;12.308;2022-10-16T01:22:20;95502.94;;;12.94;97.53
69171;BME280;56279;47.902;12.308;2022-10-16T01:24:43;95499.78;;;12.92;97.81
69171;BME280;56279;47.902;12.308;2022-10-16T01:31:09;95505.53;;;12.99;97.86
69171;BME280;56279;47.902;12.308;2022-10-16T01:33:20;95503.38;;;13.01;97.70
69171;BME280;56279;47.902;12.308;2022-10-16T01:35:30;95501.72;;;13.05;97.65
69171;BME280;56279;47.902;12.308;2022-10-16T01:39:36;95496.59;;;13.13;97.67
69171;BME280;56279;47.902;12.308;2022-10-16T01:41:44;95494.94;;;13.18;97.71
69171;BME280;56279;47.902;12.308;2022-10-16T01:43:55;95492.72;;;13.25;97.38
69171;BME280;56279;47.902;12.308;2022-10-16T01:45:59;95488.69;;;13.27;97.28
69171;BME280;56279;47.902;12.308;2022-10-16T01:48:02;95484.38;;;13.31;96.99
69171;BME280;56279;47.902;12.308;2022-10-16T01:50:07;95490.97;;;13.34;97.22
69171;BME280;56279;47.902;12.308;2022-10-16T01:52:15;95494.41;;;13.34;96.99
69171;BME280;56279;47.902;12.308;2022-10-16T01:54:19;95510.03;;;13.36;96.98
69171;BME280;56279;47.902;12.308;2022-10-16T01:56:22;95505.53;;;13.36;96.92
69171;BME280;56279;47.902;12.308;2022-10-16T01:58:25;95505.22;;;13.38;96.94
69171;BME280;56279;47.902;12.308;2022-10-16T02:00:29;95507.59;;;13.39;96.72
69171;BME280;56279;47.902;12.308;2022-10-16T02:02:31;95507.31;;;13.41;96.76
69171;BME280;56279;47.902;12.308;2022-10-16T02:04:38;95512.59;;;13.41;96.72
69171;BME280;56279;47.902;12.308;2022-10-16T02:06:40;95504.66;;;13.41;96.71
69171;BME280;56279;47.902;12.308;2022-10-16T02:08:41;95511.81;;;13.40;96.45
69171;BME280;56279;47.902;12.308;2022-10-16T02:10:45;95508.38;;;13.40;96.55
69171;BME280;56279;47.902;12.308;2022-10-16T02:12:59;95505.53;;;13.36;96.72
69171;BME280;56279;47.902;12.308;2022-10-16T02:15:03;95506.59;;;13.35;96.71
69171;BME280;56279;47.902;12.308;2022-10-16T02:17:15;95510.91;;;13.31;96.84
69171;BME280;56279;47.902;12.308;2022-10-16T02:19:18;95518.34;;;13.29;96.71
69171;BME280;56279;47.902;12.308;2022-10-16T02:21:27;95525.88;;;13.22;96.74
69171;BME280;56279;47.902;12.308;2022-10-16T02:23:43;95532.34;;;13.16;96.75
69171;BME280;56279;47.902;12.308;2022-10-16T02:25:47;95534.56;;;13.09;96.66
69171;BME280;56279;47.902;12.308;2022-10-16T02:30:20;95532.56;;;12.96;97.17
69171;BME280;56279;47.902;12.308;2022-10-16T02:32:24;95527.06;;;12.92;97.38
69171;BME280;56279;47.902;12.308;2022-10-16T02:34:31;95527.63;;;12.89;97.55
69171;BME280;56279;47.902;12.308;2022-10-16T02:36:34;95520.75;;;12.88;97.39
69171;BME280;56279;47.902;12.308;2022-10-16T02:38:37;95527.94;;;12.88;97.58
69171;BME280;56279;47.902;12.308;2022-10-16T02:40:40;95529.00;;;12.87;97.55
69171;BME280;56279;47.902;12.308;2022-10-16T02:42:42;95527.44;;;12.86;97.48
69171;BME280;56279;47.902;12.308;2022-10-16T02:44:43;95529.00;;;12.87;97.65
69171;BME280;56279;47.902;12.308;2022-10-16T02:46:44;95526.06;;;12.88;97.69
69171;BME280;56279;47.902;12.308;2022-10-16T02:48:46;95531.09;;;12.90;97.61
69171;BME280;56279;47.902;12.308;2022-10-16T02:50:47;95524.13;;;12.94;97.60
69171;BME280;56279;47.902;12.308;2022-10-16T02:52:48;95523.28;;;12.98;97.54
69171;BME280;56279;47.902;12.308;2022-10-16T02:54:49;95515.03;;;13.00;97.61
69171;BME280;56279;47.902;12.308;2022-10-16T02:56:51;95519.50;;;13.04;97.31
69171;BME280;56279;47.902;12.308;2022-10-16T02:58:52;95525.81;;;13.08;97.29
69171;BME280;56279;47.902;12.308;2022-10-16T03:00:55;95519.94;;;13.11;97.39
69171;BME280;56279;47.902;12.308;2022-10-16T03:02:56;95519.34;;;13.14;97.01
69171;BME280;56279;47.902;12.308;2022-10-16T03:04:58;95524.09;;;13.18;97.08
69171;BME280;56279;47.902;12.308;2022-10-16T03:06:59;95530.94;;;13.18;97.02
69171;BME280;56279;47.902;12.308;2022-10-16T03:09:00;95525.38;;;13.20;97.07
69171;BME280;56279;47.902;12.308;2022-10-16T03:11:01;95533.03;;;13.22;96.91
69171;BME280;56279;47.902;12.308;2022-10-16T03:13:03;95530.63;;;13.25;96.85
69171;BME280;56279;47.902;12.308;2022-10-16T03:15:04;95534.56;;;13.28;96.71
69171;BME280;56279;47.902;12.308;2022-10-16T03:17:06;95530.00;;;13.28;96.67
69171;BME280;56279;47.902;12.308;2022-10-16T03:19:07;95530.53;;;13.30;96.55
69171;BME280;56279;47.902;12.308;2022-10-16T03:21:08;95526.81;;;13.31;96.54
69171;BME280;56279;47.902;12.308;2022-10-16T03:23:10;95519.63;;;13.32;96.51
69171;BME280;56279;47.902;12.308;2022-10-16T03:25:11;95529.44;;;13.31;96.50
69171;BME280;56279;47.902;12.308;2022-10-16T03:27:12;95531.31;;;13.31;96.62
69171;BME280;56279;47.902;12.308;2022-10-16T03:29:14;95535.84;;;13.30;96.43
69171;BME280;56279;47.902;12.308;2022-10-16T03:31:15;95530.31;;;13.27;96.40
69171;BME280;56279;47.902;12.308;2022-10-16T03:33:16;95535.91;;;13.25;96.26
69171;BME280;56279;47.902;12.308;2022-10-16T03:35:18;95539.94;;;13.23;96.49
69171;BME280;56279;47.902;12.308;2022-10-16T03:37:19;95538.63;;;13.20;96.50
69171;BME280;56279;47.902;12.308;2022-10-16T03:39:21;95535.50;;;13.18;96.54
69171;BME280;56279;47.902;12.308;2022-10-16T03:41:22;95532.59;;;13.14;96.48
69171;BME280;56279;47.902;12.308;2022-10-16T03:43:23;95531.31;;;13.12;96.43
69171;BME280;56279;47.902;12.308;2022-10-16T03:45:25;95531.63;;;13.10;96.77
69171;BME280;56279;47.902;12.308;2022-10-16T03:47:27;95536.13;;;13.10;96.42
69171;BME280;56279;47.902;12.308;2022-10-16T03:49:28;95529.25;;;13.09;96.67
69171;BME280;56279;47.902;12.308;2022-10-16T03:51:29;95534.84;;;13.07;96.60
69171;BME280;56279;47.902;12.308;2022-10-16T03:53:30;95523.44;;;13.07;96.60
69171;BME280;56279;47.902;12.308;2022-10-16T03:55:32;95530.63;;;13.06;96.86
69171;BME280;56279;47.902;12.308;2022-10-16T03:57:33;95531.38;;;13.07;96.50
69171;BME280;56279;47.902;12.308;2022-10-16T03:59:34;95521.59;;;13.07;96.38
69171;BME280;56279;47.902;12.308;2022-10-16T04:01:35;95526.09;;;13.07;96.43
69171;BME280;56279;47.902;12.308;2022-10-16T04:03:37;95525.03;;;13.08;96.54
69171;BME280;56279;47.902;12.308;2022-10-16T04:05:38;95525.53;;;13.10;96.34
69171;BME280;56279;47.902;12.308;2022-10-16T04:07:40;95530.03;;;13.09;96.36
69171;BME280;56279;47.902;12.308;2022-10-16T04:09:41;95535.84;;;13.11;96.29
69171;BME280;56279;47.902;12.308;2022-10-16T04:11:43;95538.19;;;13.13;96.16
69171;BME280;56279;47.902;12.308;2022-10-16T04:13:44;95542.72;;;13.12;96.31
69171;BME280;56279;47.902;12.308;2022-10-16T04:15:45;95550.66;;;13.12;96.19
69171;BME280;56279;47.902;12.308;2022-10-16T04:17:46;95548.81;;;13.13;95.99
69171;BME280;56279;47.902;12.308;2022-10-16T04:19:48;95544.56;;;13.12;96.21
69171;BME280;56279;47.902;12.308;2022-10-16T04:21:49;95548.31;;;13.11;96.14
69171;BME280;56279;47.902;12.308;2022-10-16T04:23:50;95540.34;;;13.11;96.05
69171;BME280;56279;47.902;12.308;2022-10-16T04:25:51;95547.22;;;13.12;96.28
69171;BME280;56279;47.902;12.308;2022-10-16T04:27:53;95537.72;;;13.11;96.04
69171;BME280;56279;47.902;12.308;2022-10-16T04:29:54;95540.34;;;13.11;95.84
69171;BME280;56279;47.902;12.308;2022-10-16T04:31:56;95546.72;;;13.10;95.86
69171;BME280;56279;47.902;12.308;2022-10-16T04:33:57;95542.50;;;13.09;96.03
69171;BME280;56279;47.902;12.308;2022-10-16T04:35:59;95544.38;;;13.08;95.80
69171;BME280;56279;47.902;12.308;2022-10-16T04:38:01;95552.59;;;13.07;95.81
69171;BME280;56279;47.902;12.308;2022-10-16T04:40:03;95550.72;;;13.07;95.72
69171;BME280;56279;47.902;12.308;2022-10-16T04:42:04;95556.59;;;13.04;95.61
69171;BME280;56279;47.902;12.308;2022-10-16T04:44:05;95564.00;;;13.02;95.75
69171;BME280;56279;47.902;12.308;2022-10-16T04:46:07;95561.44;;;12.97;95.53
69171;BME280;56279;47.902;12.308;2022-10-16T04:48:08;95566.53;;;12.94;95.65
69171;BME280;56279;47.902;12.308;2022-10-16T04:50:09;95567.66;;;12.88;96.10
69171;BME280;56279;47.902;12.308;2022-10-16T04:52:11;95576.19;;;12.85;95.73
69171;BME280;56279;47.902;12.308;2022-10-16T04:54:12;95574.69;;;12.79;95.94
69171;BME280;56279;47.902;12.308;2022-10-16T04:56:13;95572.09;;;12.74;96.14
69171;BME280;56279;47.902;12.308;2022-10-16T04:58:16;95574.50;;;12.70;96.17
69171;BME280;56279;47.902;12.308;2022-10-16T05:00:17;95571.34;;;12.68;96.35
69171;BME280;56279;47.902;12.308;2022-10-16T05:02:19;95568.19;;;12.66;96.37
69171;BME280;56279;47.902;12.308;2022-10-16T05:04:20;95573.78;;;12.65;96.32
69171;BME280;56279;47.902;12.308;2022-10-16T05:06:21;95573.00;;;12.64;96.69
69171;BME280;56279;47.902;12.308;2022-10-16T05:08:22;95571.91;;;12.65;96.54
69171;BME280;56279;47.902;12.308;2022-10-16T05:10:24;95564.75;;;12.66;96.28
69171;BME280;56279;47.902;12.308;2022-10-16T05:12:25;95564.19;;;12.69;96.52
69171;BME280;56279;47.902;12.308;2022-10-16T05:14:27;95561.25;;;12.70;96.38
69171;BME280;56279;47.902;12.308;2022-10-16T05:16:28;95559.91;;;12.73;96.16
69171;BME280;56279;47.902;12.308;2022-10-16T05:18:29;95556.69;;;12.76;96.26
69171;BME280;56279;47.902;12.308;2022-10-16T05:20:31;95564.34;;;12.77;96.07
69171;BME280;56279;47.902;12.308;2022-10-16T05:22:32;95566.72;;;12.79;95.99
69171;BME280;56279;47.902;12.308;2022-10-16T05:24:33;95554.25;;;12.79;95.70
69171;BME280;56279;47.902;12.308;2022-10-16T05:26:34;95555.53;;;12.82;95.87
69171;BME280;56279;47.902;12.308;2022-10-16T05:28:36;95546.25;;;12.84;95.62
69171;BME280;56279;47.902;12.308;2022-10-16T05:30:37;95557.06;;;12.88;95.46
69171;BME280;56279;47.902;12.308;2022-10-16T05:32:39;95551.69;;;12.93;95.30
69171;BME280;56279;47.902;12.308;2022-10-16T05:34:41;95553.78;;;12.96;95.05
69171;BME280;56279;47.902;12.308;2022-10-16T05:36:43;95559.00;;;13.01;94.92
69171;BME280;56279;47.902;12.308;2022-10-16T05:38:46;95556.59;;;13.04;95.00
69171;BME280;56279;47.902;12.308;2022-10-16T05:40:51;95551.53;;;13.08;94.62
69171;BME280;56279;47.902;12.308;2022-10-16T05:42:55;95552.81;;;13.10;94.47
69171;BME280;56279;47.902;12.308;2022-10-16T05:44:57;95565.50;;;13.13;94.23
69171;BME280;56279;47.902;12.308;2022-10-16T05:46:58;95557.25;;;13.15;94.49
69171;BME280;56279;47.902;12.308;2022-10-16T05:48:59;95560.41;;;13.17;94.09
69171;BME280;56279;47.902;12.308;2022-10-16T05:51:04;95556.38;;;13.20;93.99
69171;BME280;56279;47.902;12.308;2022-10-16T05:53:06;95557.69;;;13.22;93.89
69171;BME280;56279;47.902;12.308;2022-10-16T05:55:07;95560.25;;;13.27;93.67
69171;BME280;56279;47.902;12.308;2022-10-16T05:57:09;95563.41;;;13.29;93.77
69171;BME280;56279;47.902;12.308;2022-10-16T05:59:10;95559.09;;;13.33;93.53
69171;BME280;56279;47.902;12.308;2022-10-16T06:01:14;95560.09;;;13.37;93.27
69171;BME280;56279;47.902;12.308;2022-10-16T06:03:15;95560.53;;;13.44;92.97
69171;BME280;56279;47.902;12.308;2022-10-16T06:05:17;95561.25;;;13.50;92.70
69171;BME280;56279;47.902;12.308;2022-10-16T06:07:18;95557.94;;;13.58;92.79
69171;BME280;56279;47.902;12.308;2022-10-16T06:09:19;95563.66;;;13.65;92.46
69171;BME280;56279;47.902;12.308;2022-10-16T06:11:24;95561.72;;;13.70;92.21
69171;BME280;56279;47.902;12.308;2022-10-16T06:13:26;95567.16;;;13.79;92.02
69171;BME280;56279;47.902;12.308;2022-10-16T06:15:27;95561.47;;;13.85;91.61
69171;BME280;56279;47.902;12.308;2022-10-16T06:17:31;95567.97;;;13.93;91.61
69171;BME280;56279;47.902;12.308;2022-10-16T06:19:58;95570.25;;;14.00;91.26
69171;BME280;56279;47.902;12.308;2022-10-16T06:22:02;95565.63;;;14.05;91.09
69171;BME280;56279;47.902;12.308;2022-10-16T06:24:05;95572.44;;;14.11;91.16
69171;BME280;56279;47.902;12.308;2022-10-16T06:26:11;95575.00;;;14.16;90.78
69171;BME280;56279;47.902;12.308;2022-10-16T06:28:15;95576.97;;;14.24;90.43
69171;BME280;56279;47.902;12.308;2022-10-16T06:30:17;95592.25;;;14.32;90.56
69171;BME280;56279;47.902;12.308;2022-10-16T06:32:18;95594.03;;;14.37;90.10
69171;BME280;56279;47.902;12.308;2022-10-16T06:34:20;95593.44;;;14.40;90.21
69171;BME280;56279;47.902;12.308;2022-10-16T06:36:22;95591.28;;;14.42;89.95
69171;BME280;56279;47.902;12.308;2022-10-16T06:38:23;95596.31;;;14.43;90.09
69171;BME280;56279;47.902;12.308;2022-10-16T06:40:25;95605.25;;;14.47;90.06
69171;BME280;56279;47.902;12.308;2022-10-16T06:42:26;95611.25;;;14.53;89.96
69171;BME280;56279;47.902;12.308;2022-10-16T06:44:27;95613.84;;;14.58;90.09
69171;BME280;56279;47.902;12.308;2022-10-16T06:46:29;95615.31;;;14.64;89.71
69171;BME280;56279;47.902;12.308;2022-10-16T06:48:30;95623.97;;;14.70;89.44
69171;BME280;56279;47.902;12.308;2022-10-16T06:50:32;95629.97;;;14.75;89.26
69171;BME280;56279;47.902;12.308;2022-10-16T06:52:34;95630.66;;;14.81;89.04
69171;BME280;56279;47.902;12.308;2022-10-16T06:54:35;95631.84;;;14.88;89.13
69171;BME280;56279;47.902;12.308;2022-10-16T06:56:37;95636.75;;;14.95;88.73
69171;BME280;56279;47.902;12.308;2022-10-16T06:58:38;95632.91;;;15.01;88.79
69171;BME280;56279;47.902;12.308;2022-10-16T07:00:40;95628.59;;;15.05;88.77
69171;BME280;56279;47.902;12.308;2022-10-16T07:02:41;95628.19;;;15.11;88.78
69171;BME280;56279;47.902;12.308;2022-10-16T07:04:42;95623.84;;;15.15;88.77
69171;BME280;56279;47.902;12.308;2022-10-16T07:06:44;95630.13;;;15.19;88.66
69171;BME280;56279;47.902;12.308;2022-10-16T07:08:46;95640.50;;;15.21;88.82
69171;BME280;56279;47.902;12.308;2022-10-16T07:10:48;95642.34;;;15.20;88.81
69171;BME280;56279;47.902;12.308;2022-10-16T07:12:50;95648.47;;;15.21;88.94
69171;BME280;56279;47.902;12.308;2022-10-16T07:14:52;95651.91;;;15.21;88.78
69171;BME280;56279;47.902;12.308;2022-10-16T07:16:53;95649.75;;;15.23;88.45
69171;BME280;56279;47.902;12.308;2022-10-16T07:18:55;95652.88;;;15.26;88.70
69171;BME280;56279;47.902;12.308;2022-10-16T07:21:07;95651.03;;;15.26;88.69
69171;BME280;56279;47.902;12.308;2022-10-16T07:23:11;95646.47;;;15.27;88.85
69171;BME280;56279;47.902;12.308;2022-10-16T07:25:12;95658.22;;;15.26;88.69
69171;BME280;56279;47.902;12.308;2022-10-16T07:27:14;95668.34;;;15.23;88.84
69171;BME280;56279;47.902;12.308;2022-10-16T07:29:19;95665.50;;;15.20;88.98
69171;BME280;56279;47.902;12.308;2022-10-16T07:31:21;95662.34;;;15.18;89.04
69171;BME280;56279;47.902;12.308;2022-10-16T07:33:23;95655.75;;;15.15;89.13
69171;BME280;56279;47.902;12.308;2022-10-16T07:35:24;95664.22;;;15.17;89.40
69171;BME280;56279;47.902;12.308;2022-10-16T07:37:25;95660.16;;;15.20;89.35
69171;BME280;56279;47.902;12.308;2022-10-16T07:39:27;95664.41;;;15.21;89.41
69171;BME280;56279;47.902;12.308;2022-10-16T07:41:28;95664.91;;;15.23;89.62
69171;BME280;56279;47.902;12.308;2022-10-16T07:43:30;95663.03;;;15.23;89.42
69171;BME280;56279;47.902;12.308;2022-10-16T07:45:31;95664.09;;;15.22;89.56
69171;BME280;56279;47.902;12.308;2022-10-16T07:47:32;95663.63;;;15.20;89.77
69171;BME280;56279;47.902;12.308;2022-10-16T07:49:33;95663.41;;;15.17;89.68
69171;BME280;56279;47.902;12.308;2022-10-16T07:51:35;95667.75;;;15.13;89.79
69171;BME280;56279;47.902;12.308;2022-10-16T07:53:36;95679.78;;;15.10;90.09
69171;BME280;56279;47.902;12.308;2022-10-16T07:55:38;95679.09;;;15.05;90.21
69171;BME280;56279;47.902;12.308;2022-10-16T07:57:39;95682.03;;;15.03;90.19
69171;BME280;56279;47.902;12.308;2022-10-16T07:59:40;95682.66;;;15.00;90.25
69171;BME280;56279;47.902;12.308;2022-10-16T08:01:42;95688.25;;;14.99;90.45
69171;BME280;56279;47.902;12.308;2022-10-16T08:03:44;95677.91;;;14.97;90.42
69171;BME280;56279;47.902;12.308;2022-10-16T08:05:46;95684.03;;;14.98;90.22
69171;BME280;56279;47.902;12.308;2022-10-16T08:07:51;95684.03;;;14.98;90.61
69171;BME280;56279;47.902;12.308;2022-10-16T08:09:52;95687.16;;;15.00;90.82
69171;BME280;56279;47.902;12.308;2022-10-16T08:11:53;95683.13;;;15.02;90.53
69171;BME280;56279;47.902;12.308;2022-10-16T08:13:55;95689.72;;;15.05;90.57
69171;BME280;56279;47.902;12.308;2022-10-16T08:15:56;95687.75;;;15.10;90.54
69171;BME280;56279;47.902;12.308;2022-10-16T08:18:02;95701.44;;;15.17;90.42
69171;BME280;56279;47.902;12.308;2022-10-16T08:20:04;95698.69;;;15.22;90.30
69171;BME280;56279;47.902;12.308;2022-10-16T08:22:06;95699.66;;;15.27;90.15
69171;BME280;56279;47.902;12.308;2022-10-16T08:24:07;95697.19;;;15.30;90.35
69171;BME280;56279;47.902;12.308;2022-10-16T08:26:10;95702.69;;;15.34;90.26
69171;BME280;56279;47.902;12.308;2022-10-16T08:28:11;95699.16;;;15.38;90.37
69171;BME280;56279;47.902;12.308;2022-10-16T08:30:13;95705.47;;;15.42;89.94
69171;BME280;56279;47.902;12.308;2022-10-16T08:32:15;95707.81;;;15.44;89.87
69171;BME280;56279;47.902;12.308;2022-10-16T08:34:16;95712.59;;;15.47;89.92
69171;BME280;56279;47.902;12.308;2022-10-16T08:36:17;95714.63;;;15.50;89.50
69171;BME280;56279;47.902;12.308;2022-10-16T08:38:19;95718.28;;;15.54;89.50
69171;BME280;56279;47.902;12.308;2022-10-16T08:40:26;95722.41;;;15.60;89.28
69171;BME280;56279;47.902;12.308;2022-10-16T08:47:17;95722.09;;;15.75;88.44
69171;BME280;56279;47.902;12.308;2022-10-16T08:49:19;95719.31;;;15.80;87.97
69171;BME280;56279;47.902;12.308;2022-10-16T08:51:26;95728.28;;;15.84;87.24
69171;BME280;56279;47.902;12.308;2022-10-16T08:53:44;95732.72;;;15.88;87.35
69171;BME280;56279;47.902;12.308;2022-10-16T08:55:50;95734.00;;;15.91;86.89
69171;BME280;56279;47.902;12.308;2022-10-16T08:57:52;95733.38;;;15.94;86.74
69171;BME280;56279;47.902;12.308;2022-10-16T08:59:57;95727.47;;;15.97;86.65
69171;BME280;56279;47.902;12.308;2022-10-16T09:02:01;95733.75;;;16.01;86.06
69171;BME280;56279;47.902;12.308;2022-10-16T09:12:58;95737.25;;;16.24;85.37
69171;BME280;56279;47.902;12.308;2022-10-16T09:19:45;95739.72;;;16.42;84.86
69171;BME280;56279;47.902;12.308;2022-10-16T09:21:48;95743.03;;;16.48;84.91
69171;BME280;56279;47.902;12.308;2022-10-16T09:23:50;95744.81;;;16.52;84.76
69171;BME280;56279;47.902;12.308;2022-10-16T09:25:52;95747.84;;;16.59;84.52
69171;BME280;56279;47.902;12.308;2022-10-16T09:27:55;95751.19;;;16.65;84.91
69171;BME280;56279;47.902;12.308;2022-10-16T09:29:56;95743.88;;;16.71;84.67
69171;BME280;56279;47.902;12.308;2022-10-16T09:32:10;95752.22;;;16.78;84.85
69171;BME280;56279;47.902;12.308;2022-10-16T09:34:33;95742.69;;;16.85;84.83
69171;BME280;56279;47.902;12.308;2022-10-16T09:36:40;95745.41;;;16.94;84.93
69171;BME280;56279;47.902;12.308;2022-10-16T09:38:42;95751.56;;;17.03;84.99
69171;BME280;56279;47.902;12.308;2022-10-16T09:40:44;95750.81;;;17.11;85.37
69171;BME280;56279;47.902;12.308;2022-10-16T09:42:45;95753.81;;;17.18;85.53
69171;BME280;56279;47.902;12.308;2022-10-16T09:44:48;95753.56;;;17.28;85.24
69171;BME280;56279;47.902;12.308;2022-10-16T09:47:04;95751.38;;;17.39;85.25
69171;BME280;56279;47.902;12.308;2022-10-16T09:49:22;95756.16;;;17.50;85.18
69171;BME280;56279;47.902;12.308;2022-10-16T09:51:27;95753.06;;;17.57;85.10
69171;BME280;56279;47.902;12.308;2022-10-16T09:53:42;95752.59;;;17.63;84.73
69171;BME280;56279;47.902;12.308;2022-10-16T09:55:51;95760.63;;;17.72;84.36
69171;BME280;56279;47.902;12.308;2022-10-16T09:57:54;95756.41;;;17.79;84.13
69171;BME280;56279;47.902;12.308;2022-10-16T09:59:57;95753.59;;;17.84;84.27
69171;BME280;56279;47.902;12.308;2022-10-16T10:02:03;95754.22;;;17.90;84.25
69171;BME280;56279;47.902;12.308;2022-10-16T10:04:10;95759.59;;;17.99;84.19
69171;BME280;56279;47.902;12.308;2022-10-16T10:06:26;95764.47;;;18.05;84.30
69171;BME280;56279;47.902;12.308;2022-10-16T10:08:28;95762.44;;;18.11;83.87
69171;BME280;56279;47.902;12.308;2022-10-16T10:10:31;95760.56;;;18.20;83.66
69171;BME280;56279;47.902;12.308;2022-10-16T10:12:33;95756.63;;;18.26;83.73
69171;BME280;56279;47.902;12.308;2022-10-16T10:14:48;95761.19;;;18.34;83.58
69171;BME280;56279;47.902;12.308;2022-10-16T10:19:04;95756.50;;;18.56;83.21
69171;BME280;56279;47.902;12.308;2022-10-16T10:21:15;95756.47;;;18.65;83.09
69171;BME280;56279;47.902;12.308;2022-10-16T10:23:22;95757.56;;;18.73;82.59
69171;BME280;56279;47.902;12.308;2022-10-16T10:25:35;95753.16;;;18.77;82.58
69171;BME280;56279;47.902;12.308;2022-10-16T10:32:22;95746.06;;;18.89;81.98
69171;BME280;56279;47.902;12.308;2022-10-16T10:36:38;95744.25;;;19.10;81.14
69171;BME280;56279;47.902;12.308;2022-10-16T10:43:44;95743.56;;;19.39;80.20
69171;BME280;56279;47.902;12.308;2022-10-16T10:45:57;95744.59;;;19.47;79.36
69171;BME280;56279;47.902;12.308;2022-10-16T10:48:12;95751.81;;;19.55;79.21
69171;BME280;56279;47.902;12.308;2022-10-16T10:50:28;95753.88;;;19.58;78.85
69171;BME280;56279;47.902;12.308;2022-10-16T10:54:49;95759.00;;;19.63;78.27
69171;BME280;56279;47.902;12.308;2022-10-16T10:57:32;95757.41;;;19.70;78.26
69171;BME280;56279;47.902;12.308;2022-10-16T11:00:11;95760.38;;;19.77;77.09
69171;BME280;56279;47.902;12.308;2022-10-16T11:02:52;95763.94;;;19.90;77.36
69171;BME280;56279;47.902;12.308;2022-10-16T11:07:31;95755.38;;;19.96;77.95
69171;BME280;56279;47.902;12.308;2022-10-16T11:10:04;95753.47;;;19.97;77.83
69171;BME280;56279;47.902;12.308;2022-10-16T11:12:22;95758.66;;;20.02;76.67
69171;BME280;56279;47.902;12.308;2022-10-16T11:14:57;95770.75;;;20.08;76.78
69171;BME280;56279;47.902;12.308;2022-10-16T11:17:10;95760.94;;;20.12;77.03
69171;BME280;56279;47.902;12.308;2022-10-16T11:21:38;95747.00;;;20.19;76.52
69171;BME280;56279;47.902;12.308;2022-10-16T11:23:51;95743.72;;;20.22;77.04
69171;BME280;56279;47.902;12.308;2022-10-16T11:25:59;95738.50;;;20.25;76.28
69171;BME280;56279;47.902;12.308;2022-10-16T11:32:39;95736.31;;;20.39;76.89
69171;BME280;56279;47.902;12.308;2022-10-16T11:35:19;95737.69;;;20.45;77.16
69171;BME280;56279;47.902;12.308;2022-10-16T11:37:33;95730.22;;;20.51;76.59
69171;BME280;56279;47.902;12.308;2022-10-16T11:39:38;95735.72;;;20.54;76.45
69171;BME280;56279;47.902;12.308;2022-10-16T11:41:55;95735.06;;;20.57;76.44
69171;BME280;56279;47.902;12.308;2022-10-16T11:44:18;95731.72;;;20.60;76.16
69171;BME280;56279;47.902;12.308;2022-10-16T11:46:22;95743.34;;;20.64;75.47